sensor_id;sensor_type;location;lat;lon;timestamp;P1;durP1;ratioP1;P2;durP2;ratioP2
6101;SDS011;3081;50.584;7.032;2023-03-08T00:00:12;4.67;;;3.10;;
6101;SDS011;3081;50.584;7.032;2023-03-08T00:02:41;5.67;;;3.10;;
6101;SDS011;3081;50.584;7.032;2023-03-08T00:05:09;7.53;;;3.40;;
6101;SDS011;3081;50.584;7.032;2023-03-08T00:07:36;6.07;;;3.22;;
6101;SDS011;3081;50.584;7.032;2023-03-08T00:10:03;3.60;;;2.13;;
6101;SDS011;3081;50.584;7.032;2023-03-08T00:12:31;4.70;;;3.10;;
6101;SDS011;3081;50.584;7.032;2023-03-08T00:14:58;4.57;;;2.60;;
6101;SDS011;3081;50.584;7.032;2023-03-08T00:17:25;4.97;;;2.93;;
6101;SDS011;3081;50.584;7.032;2023-03-08T00:19:52;8.33;;;3.07;;
6101;SDS011;3081;50.584;7.032;2023-03-08T00:22:20;4.93;;;2.73;;
6101;SDS011;3081;50.584;7.032;2023-03-08T00:24:47;5.30;;;2.97;;
6101;SDS011;3081;50.584;7.032;2023-03-08T00:27:14;6.33;;;3.63;;
6101;SDS011;3081;50.584;7.032;2023-03-08T00:29:40;6.27;;;3.47;;
6101;SDS011;3081;50.584;7.032;2023-03-08T00:32:07;5.73;;;3.00;;
6101;SDS011;3081;50.584;7.032;2023-03-08T00:34:34;13.83;;;5.57;;
6101;SDS011;3081;50.584;7.032;2023-03-08T00:37:01;7.57;;;4.00;;
6101;SDS011;3081;50.584;7.032;2023-03-08T00:39:29;43.63;;;17.77;;
6101;SDS011;3081;50.584;7.032;2023-03-08T00:41:56;58.07;;;24.30;;
6101;SDS011;3081;50.584;7.032;2023-03-08T00:44:23;23.30;;;9.27;;
6101;SDS011;3081;50.584;7.032;2023-03-08T00:46:50;15.90;;;7.67;;
6101;SDS011;3081;50.584;7.032;2023-03-08T00:49:17;9.00;;;3.83;;
6101;SDS011;3081;50.584;7.032;2023-03-08T00:51:44;6.60;;;3.60;;
6101;SDS011;3081;50.584;7.032;2023-03-08T00:54:11;6.03;;;3.40;;
6101;SDS011;3081;50.584;7.032;2023-03-08T00:56:39;6.13;;;3.70;;
6101;SDS011;3081;50.584;7.032;2023-03-08T00:59:06;8.03;;;3.90;;
6101;SDS011;3081;50.584;7.032;2023-03-08T01:01:33;64.63;;;20.40;;
6101;SDS011;3081;50.584;7.032;2023-03-08T01:04:00;7.03;;;3.83;;
6101;SDS011;3081;50.584;7.032;2023-03-08T01:06:28;8.30;;;3.90;;
6101;SDS011;3081;50.584;7.032;2023-03-08T01:08:55;29.20;;;9.90;;
6101;SDS011;3081;50.584;7.032;2023-03-08T01:11:22;6.50;;;4.00;;
6101;SDS011;3081;50.584;7.032;2023-03-08T01:13:52;15.23;;;6.57;;
6101;SDS011;3081;50.584;7.032;2023-03-08T01:16:20;7.17;;;4.07;;
6101;SDS011;3081;50.584;7.032;2023-03-08T01:18:48;7.03;;;4.00;;
6101;SDS011;3081;50.584;7.032;2023-03-08T01:21:15;8.07;;;3.60;;
6101;SDS011;3081;50.584;7.032;2023-03-08T01:23:42;11.43;;;4.60;;
6101;SDS011;3081;50.584;7.032;2023-03-08T01:26:10;7.40;;;4.43;;
6101;SDS011;3081;50.584;7.032;2023-03-08T01:28:38;8.93;;;4.73;;
6101;SDS011;3081;50.584;7.032;2023-03-08T01:31:08;11.80;;;4.10;;
6101;SDS011;3081;50.584;7.032;2023-03-08T01:33:37;9.73;;;4.90;;
6101;SDS011;3081;50.584;7.032;2023-03-08T01:36:05;9.57;;;4.67;;
6101;SDS011;3081;50.584;7.032;2023-03-08T01:38:33;5.73;;;3.87;;
6101;SDS011;3081;50.584;7.032;2023-03-08T01:41:01;6.53;;;4.00;;
6101;SDS011;3081;50.584;7.032;2023-03-08T01:43:29;7.60;;;4.70;;
6101;SDS011;3081;50.584;7.032;2023-03-08T01:46:03;7.13;;;4.40;;
6101;SDS011;3081;50.584;7.032;2023-03-08T01:48:37;12.40;;;5.07;;
6101;SDS011;3081;50.584;7.032;2023-03-08T01:51:09;7.90;;;4.77;;
6101;SDS011;3081;50.584;7.032;2023-03-08T01:53:38;10.73;;;6.40;;
6101;SDS011;3081;50.584;7.032;2023-03-08T01:56:07;7.70;;;4.60;;
6101;SDS011;3081;50.584;7.032;2023-03-08T01:58:37;9.13;;;5.67;;
6101;SDS011;3081;50.584;7.032;2023-03-08T02:01:06;9.60;;;5.53;;
6101;SDS011;3081;50.584;7.032;2023-03-08T02:03:33;11.90;;;5.90;;
6101;SDS011;3081;50.584;7.032;2023-03-08T02:06:00;11.47;;;5.60;;
6101;SDS011;3081;50.584;7.032;2023-03-08T02:08:28;10.23;;;6.17;;
6101;SDS011;3081;50.584;7.032;2023-03-08T02:10:56;9.63;;;5.53;;
6101;SDS011;3081;50.584;7.032;2023-03-08T02:13:23;11.20;;;6.10;;
6101;SDS011;3081;50.584;7.032;2023-03-08T02:15:50;12.00;;;6.40;;
6101;SDS011;3081;50.584;7.032;2023-03-08T02:18:22;10.03;;;5.73;;
6101;SDS011;3081;50.584;7.032;2023-03-08T02:20:49;9.87;;;5.50;;
6101;SDS011;3081;50.584;7.032;2023-03-08T02:23:17;11.10;;;5.93;;
6101;SDS011;3081;50.584;7.032;2023-03-08T02:25:49;10.77;;;6.83;;
6101;SDS011;3081;50.584;7.032;2023-03-08T02:28:18;8.33;;;5.47;;
6101;SDS011;3081;50.584;7.032;2023-03-08T02:30:45;14.00;;;6.07;;
6101;SDS011;3081;50.584;7.032;2023-03-08T02:33:13;12.30;;;6.03;;
6101;SDS011;3081;50.584;7.032;2023-03-08T02:35:40;13.73;;;7.10;;
6101;SDS011;3081;50.584;7.032;2023-03-08T02:38:08;12.80;;;6.10;;
6101;SDS011;3081;50.584;7.032;2023-03-08T02:40:37;10.77;;;6.13;;
6101;SDS011;3081;50.584;7.032;2023-03-08T02:43:05;14.80;;;7.50;;
6101;SDS011;3081;50.584;7.032;2023-03-08T02:45:32;12.40;;;5.90;;
6101;SDS011;3081;50.584;7.032;2023-03-08T02:48:00;15.30;;;7.13;;
6101;SDS011;3081;50.584;7.032;2023-03-08T02:50:28;12.00;;;6.40;;
6101;SDS011;3081;50.584;7.032;2023-03-08T02:52:55;13.93;;;6.67;;
6101;SDS011;3081;50.584;7.032;2023-03-08T02:55:22;12.13;;;6.33;;
6101;SDS011;3081;50.584;7.032;2023-03-08T02:57:51;9.60;;;5.67;;
6101;SDS011;3081;50.584;7.032;2023-03-08T03:00:18;11.00;;;5.20;;
6101;SDS011;3081;50.584;7.032;2023-03-08T03:02:45;8.40;;;4.60;;
6101;SDS011;3081;50.584;7.032;2023-03-08T03:05:12;11.13;;;5.30;;
6101;SDS011;3081;50.584;7.032;2023-03-08T03:07:40;8.50;;;4.97;;
6101;SDS011;3081;50.584;7.032;2023-03-08T03:10:10;13.47;;;5.30;;
6101;SDS011;3081;50.584;7.032;2023-03-08T03:12:37;9.20;;;5.07;;
6101;SDS011;3081;50.584;7.032;2023-03-08T03:15:07;8.90;;;4.87;;
6101;SDS011;3081;50.584;7.032;2023-03-08T03:17:35;10.97;;;5.70;;
6101;SDS011;3081;50.584;7.032;2023-03-08T03:20:02;15.47;;;7.00;;
6101;SDS011;3081;50.584;7.032;2023-03-08T03:22:30;11.70;;;6.07;;
6101;SDS011;3081;50.584;7.032;2023-03-08T03:24:58;12.10;;;5.40;;
6101;SDS011;3081;50.584;7.032;2023-03-08T03:27:25;10.67;;;5.37;;
6101;SDS011;3081;50.584;7.032;2023-03-08T03:29:52;8.30;;;4.03;;
6101;SDS011;3081;50.584;7.032;2023-03-08T03:32:20;9.10;;;4.13;;
6101;SDS011;3081;50.584;7.032;2023-03-08T03:34:47;8.37;;;4.50;;
6101;SDS011;3081;50.584;7.032;2023-03-08T03:37:14;12.60;;;5.60;;
6101;SDS011;3081;50.584;7.032;2023-03-08T03:39:41;7.73;;;4.33;;
6101;SDS011;3081;50.584;7.032;2023-03-08T03:42:08;8.00;;;4.50;;
6101;SDS011;3081;50.584;7.032;2023-03-08T03:44:35;7.93;;;4.93;;
6101;SDS011;3081;50.584;7.032;2023-03-08T03:47:02;7.17;;;3.80;;
6101;SDS011;3081;50.584;7.032;2023-03-08T03:49:30;9.00;;;5.30;;
6101;SDS011;3081;50.584;7.032;2023-03-08T03:51:57;7.73;;;4.27;;
6101;SDS011;3081;50.584;7.032;2023-03-08T03:54:24;7.20;;;4.00;;
6101;SDS011;3081;50.584;7.032;2023-03-08T03:56:51;10.33;;;5.00;;
6101;SDS011;3081;50.584;7.032;2023-03-08T03:59:22;9.20;;;5.40;;
6101;SDS011;3081;50.584;7.032;2023-03-08T04:01:49;12.57;;;6.50;;
6101;SDS011;3081;50.584;7.032;2023-03-08T04:04:16;10.60;;;6.20;;
6101;SDS011;3081;50.584;7.032;2023-03-08T04:06:44;11.50;;;5.67;;
6101;SDS011;3081;50.584;7.032;2023-03-08T04:09:12;13.40;;;6.70;;
6101;SDS011;3081;50.584;7.032;2023-03-08T04:11:40;13.47;;;6.10;;
6101;SDS011;3081;50.584;7.032;2023-03-08T04:14:07;16.63;;;6.83;;
6101;SDS011;3081;50.584;7.032;2023-03-08T04:16:35;9.10;;;5.37;;
6101;SDS011;3081;50.584;7.032;2023-03-08T04:19:04;10.53;;;4.97;;
6101;SDS011;3081;50.584;7.032;2023-03-08T04:21:33;8.30;;;4.93;;
6101;SDS011;3081;50.584;7.032;2023-03-08T04:24:01;9.60;;;4.90;;
6101;SDS011;3081;50.584;7.032;2023-03-08T04:26:29;12.17;;;5.80;;
6101;SDS011;3081;50.584;7.032;2023-03-08T04:28:56;9.77;;;5.53;;
6101;SDS011;3081;50.584;7.032;2023-03-08T04:31:24;7.67;;;4.43;;
6101;SDS011;3081;50.584;7.032;2023-03-08T04:33:52;11.57;;;6.53;;
6101;SDS011;3081;50.584;7.032;2023-03-08T04:36:20;12.53;;;6.13;;
6101;SDS011;3081;50.584;7.032;2023-03-08T04:38:47;11.00;;;6.10;;
6101;SDS011;3081;50.584;7.032;2023-03-08T04:41:16;11.43;;;5.40;;
6101;SDS011;3081;50.584;7.032;2023-03-08T04:43:44;12.97;;;6.50;;
6101;SDS011;3081;50.584;7.032;2023-03-08T04:46:12;11.40;;;6.60;;
6101;SDS011;3081;50.584;7.032;2023-03-08T04:48:40;12.50;;;7.40;;
6101;SDS011;3081;50.584;7.032;2023-03-08T04:51:07;12.00;;;6.37;;
6101;SDS011;3081;50.584;7.032;2023-03-08T04:53:36;14.27;;;7.97;;
6101;SDS011;3081;50.584;7.032;2023-03-08T04:56:06;13.20;;;7.27;;
6101;SDS011;3081;50.584;7.032;2023-03-08T04:58:35;14.67;;;7.30;;
6101;SDS011;3081;50.584;7.032;2023-03-08T05:01:09;12.07;;;6.20;;
6101;SDS011;3081;50.584;7.032;2023-03-08T05:03:37;12.00;;;5.67;;
6101;SDS011;3081;50.584;7.032;2023-03-08T05:06:04;10.73;;;5.60;;
6101;SDS011;3081;50.584;7.032;2023-03-08T05:08:32;8.57;;;4.70;;
6101;SDS011;3081;50.584;7.032;2023-03-08T05:10:59;4.40;;;2.67;;
6101;SDS011;3081;50.584;7.032;2023-03-08T05:13:27;8.80;;;4.90;;
6101;SDS011;3081;50.584;7.032;2023-03-08T05:15:57;8.10;;;5.10;;
6101;SDS011;3081;50.584;7.032;2023-03-08T05:18:24;10.40;;;5.87;;
6101;SDS011;3081;50.584;7.032;2023-03-08T05:20:54;8.00;;;4.37;;
6101;SDS011;3081;50.584;7.032;2023-03-08T05:23:22;5.27;;;3.20;;
6101;SDS011;3081;50.584;7.032;2023-03-08T05:25:52;10.13;;;5.93;;
6101;SDS011;3081;50.584;7.032;2023-03-08T05:28:19;7.73;;;3.97;;
6101;SDS011;3081;50.584;7.032;2023-03-08T05:30:47;8.50;;;3.83;;
6101;SDS011;3081;50.584;7.032;2023-03-08T05:33:16;8.20;;;4.50;;
6101;SDS011;3081;50.584;7.032;2023-03-08T05:35:43;6.67;;;3.30;;
6101;SDS011;3081;50.584;7.032;2023-03-08T05:38:17;6.77;;;3.50;;
6101;SDS011;3081;50.584;7.032;2023-03-08T05:40:44;9.60;;;5.07;;
6101;SDS011;3081;50.584;7.032;2023-03-08T05:43:11;11.00;;;5.33;;
6101;SDS011;3081;50.584;7.032;2023-03-08T05:45:38;6.07;;;3.20;;
6101;SDS011;3081;50.584;7.032;2023-03-08T05:48:05;9.63;;;4.87;;
6101;SDS011;3081;50.584;7.032;2023-03-08T05:50:35;9.67;;;5.13;;
6101;SDS011;3081;50.584;7.032;2023-03-08T05:53:02;9.10;;;4.80;;
6101;SDS011;3081;50.584;7.032;2023-03-08T05:55:29;5.10;;;2.90;;
6101;SDS011;3081;50.584;7.032;2023-03-08T05:57:56;8.77;;;4.57;;
6101;SDS011;3081;50.584;7.032;2023-03-08T06:00:24;8.30;;;4.47;;
6101;SDS011;3081;50.584;7.032;2023-03-08T06:02:51;10.90;;;5.77;;
6101;SDS011;3081;50.584;7.032;2023-03-08T06:05:18;5.67;;;3.30;;
6101;SDS011;3081;50.584;7.032;2023-03-08T06:07:46;7.83;;;4.77;;
6101;SDS011;3081;50.584;7.032;2023-03-08T06:10:14;9.83;;;5.50;;
6101;SDS011;3081;50.584;7.032;2023-03-08T06:12:41;9.13;;;4.60;;
6101;SDS011;3081;50.584;7.032;2023-03-08T06:15:08;8.50;;;5.27;;
6101;SDS011;3081;50.584;7.032;2023-03-08T06:17:37;15.07;;;8.13;;
6101;SDS011;3081;50.584;7.032;2023-03-08T06:20:04;31.33;;;17.57;;
6101;SDS011;3081;50.584;7.032;2023-03-08T06:22:31;14.83;;;7.93;;
6101;SDS011;3081;50.584;7.032;2023-03-08T06:25:00;44.73;;;22.07;;
6101;SDS011;3081;50.584;7.032;2023-03-08T06:27:27;9.10;;;5.37;;
6101;SDS011;3081;50.584;7.032;2023-03-08T06:29:54;6.87;;;3.93;;
6101;SDS011;3081;50.584;7.032;2023-03-08T06:32:21;10.03;;;5.40;;
6101;SDS011;3081;50.584;7.032;2023-03-08T06:34:48;12.00;;;6.33;;
6101;SDS011;3081;50.584;7.032;2023-03-08T06:37:15;6.90;;;3.90;;
6101;SDS011;3081;50.584;7.032;2023-03-08T06:39:42;8.30;;;4.40;;
6101;SDS011;3081;50.584;7.032;2023-03-08T06:42:10;8.27;;;4.20;;
6101;SDS011;3081;50.584;7.032;2023-03-08T06:44:37;16.50;;;9.30;;
6101;SDS011;3081;50.584;7.032;2023-03-08T06:47:04;13.63;;;6.90;;
6101;SDS011;3081;50.584;7.032;2023-03-08T06:49:31;25.20;;;12.93;;
6101;SDS011;3081;50.584;7.032;2023-03-08T06:51:59;23.80;;;11.67;;
6101;SDS011;3081;50.584;7.032;2023-03-08T06:54:25;8.40;;;5.20;;
6101;SDS011;3081;50.584;7.032;2023-03-08T06:56:52;9.60;;;5.17;;
6101;SDS011;3081;50.584;7.032;2023-03-08T06:59:21;9.20;;;4.93;;
6101;SDS011;3081;50.584;7.032;2023-03-08T07:01:48;11.17;;;4.60;;
6101;SDS011;3081;50.584;7.032;2023-03-08T07:04:14;14.87;;;4.70;;
6101;SDS011;3081;50.584;7.032;2023-03-08T07:06:42;10.20;;;4.90;;
6101;SDS011;3081;50.584;7.032;2023-03-08T07:09:09;6.33;;;3.70;;
6101;SDS011;3081;50.584;7.032;2023-03-08T07:11:37;7.70;;;4.47;;
6101;SDS011;3081;50.584;7.032;2023-03-08T07:14:04;9.73;;;5.13;;
6101;SDS011;3081;50.584;7.032;2023-03-08T07:16:32;9.97;;;5.40;;
6101;SDS011;3081;50.584;7.032;2023-03-08T07:19:00;10.20;;;5.00;;
6101;SDS011;3081;50.584;7.032;2023-03-08T07:21:27;27.57;;;11.40;;
6101;SDS011;3081;50.584;7.032;2023-03-08T07:23:54;21.80;;;10.70;;
6101;SDS011;3081;50.584;7.032;2023-03-08T07:26:21;12.73;;;6.17;;
6101;SDS011;3081;50.584;7.032;2023-03-08T07:28:48;20.00;;;5.30;;
6101;SDS011;3081;50.584;7.032;2023-03-08T07:31:16;6.43;;;4.03;;
6101;SDS011;3081;50.584;7.032;2023-03-08T07:33:44;8.40;;;4.30;;
6101;SDS011;3081;50.584;7.032;2023-03-08T07:36:12;6.20;;;3.90;;
6101;SDS011;3081;50.584;7.032;2023-03-08T07:38:39;8.90;;;4.37;;
6101;SDS011;3081;50.584;7.032;2023-03-08T07:41:06;8.87;;;5.40;;
6101;SDS011;3081;50.584;7.032;2023-03-08T07:43:33;8.20;;;5.10;;
6101;SDS011;3081;50.584;7.032;2023-03-08T07:46:00;10.60;;;5.73;;
6101;SDS011;3081;50.584;7.032;2023-03-08T07:48:28;8.00;;;4.73;;
6101;SDS011;3081;50.584;7.032;2023-03-08T07:51:00;7.10;;;4.40;;
6101;SDS011;3081;50.584;7.032;2023-03-08T07:53:28;10.17;;;5.40;;
6101;SDS011;3081;50.584;7.032;2023-03-08T07:55:56;13.87;;;6.00;;
6101;SDS011;3081;50.584;7.032;2023-03-08T07:58:24;11.80;;;4.70;;
6101;SDS011;3081;50.584;7.032;2023-03-08T08:00:51;20.70;;;8.73;;
6101;SDS011;3081;50.584;7.032;2023-03-08T08:03:18;32.50;;;16.27;;
6101;SDS011;3081;50.584;7.032;2023-03-08T08:05:45;11.07;;;7.03;;
6101;SDS011;3081;50.584;7.032;2023-03-08T08:08:13;9.40;;;5.63;;
6101;SDS011;3081;50.584;7.032;2023-03-08T08:10:41;11.07;;;5.00;;
6101;SDS011;3081;50.584;7.032;2023-03-08T08:13:08;11.33;;;5.67;;
6101;SDS011;3081;50.584;7.032;2023-03-08T08:15:35;10.13;;;5.80;;
6101;SDS011;3081;50.584;7.032;2023-03-08T08:18:02;11.43;;;6.90;;
6101;SDS011;3081;50.584;7.032;2023-03-08T08:20:29;11.10;;;5.70;;
6101;SDS011;3081;50.584;7.032;2023-03-08T08:22:56;9.90;;;5.73;;
6101;SDS011;3081;50.584;7.032;2023-03-08T08:25:25;12.93;;;7.10;;
6101;SDS011;3081;50.584;7.032;2023-03-08T08:27:52;12.50;;;6.70;;
6101;SDS011;3081;50.584;7.032;2023-03-08T08:30:19;13.33;;;8.13;;
6101;SDS011;3081;50.584;7.032;2023-03-08T08:32:46;9.50;;;6.10;;
6101;SDS011;3081;50.584;7.032;2023-03-08T08:35:13;10.40;;;6.00;;
6101;SDS011;3081;50.584;7.032;2023-03-08T08:37:40;15.93;;;7.33;;
6101;SDS011;3081;50.584;7.032;2023-03-08T08:40:07;32.10;;;13.07;;
6101;SDS011;3081;50.584;7.032;2023-03-08T08:42:37;21.50;;;11.27;;
6101;SDS011;3081;50.584;7.032;2023-03-08T08:45:04;39.10;;;21.97;;
6101;SDS011;3081;50.584;7.032;2023-03-08T08:47:32;13.13;;;7.60;;
6101;SDS011;3081;50.584;7.032;2023-03-08T08:49:59;12.97;;;7.20;;
6101;SDS011;3081;50.584;7.032;2023-03-08T08:52:26;15.10;;;7.03;;
6101;SDS011;3081;50.584;7.032;2023-03-08T08:54:53;12.53;;;7.13;;
6101;SDS011;3081;50.584;7.032;2023-03-08T08:57:20;12.73;;;7.77;;
6101;SDS011;3081;50.584;7.032;2023-03-08T08:59:49;14.50;;;7.30;;
6101;SDS011;3081;50.584;7.032;2023-03-08T09:02:16;12.90;;;6.73;;
6101;SDS011;3081;50.584;7.032;2023-03-08T09:04:42;21.03;;;8.90;;
6101;SDS011;3081;50.584;7.032;2023-03-08T09:07:09;12.60;;;6.53;;
6101;SDS011;3081;50.584;7.032;2023-03-08T09:09:36;13.03;;;7.50;;
6101;SDS011;3081;50.584;7.032;2023-03-08T09:12:03;13.13;;;7.30;;
6101;SDS011;3081;50.584;7.032;2023-03-08T09:14:31;10.17;;;6.30;;
6101;SDS011;3081;50.584;7.032;2023-03-08T09:17:00;12.20;;;7.30;;
6101;SDS011;3081;50.584;7.032;2023-03-08T09:19:27;14.10;;;7.70;;
6101;SDS011;3081;50.584;7.032;2023-03-08T09:21:54;15.93;;;7.80;;
6101;SDS011;3081;50.584;7.032;2023-03-08T09:24:21;11.80;;;6.23;;
6101;SDS011;3081;50.584;7.032;2023-03-08T09:26:48;12.00;;;7.67;;
6101;SDS011;3081;50.584;7.032;2023-03-08T09:29:15;15.20;;;8.80;;
6101;SDS011;3081;50.584;7.032;2023-03-08T09:31:42;69.60;;;34.63;;
6101;SDS011;3081;50.584;7.032;2023-03-08T09:34:10;38.83;;;20.33;;
6101;SDS011;3081;50.584;7.032;2023-03-08T09:36:39;15.23;;;8.80;;
6101;SDS011;3081;50.584;7.032;2023-03-08T09:39:08;15.67;;;9.20;;
6101;SDS011;3081;50.584;7.032;2023-03-08T09:41:41;16.67;;;7.87;;
6101;SDS011;3081;50.584;7.032;2023-03-08T09:44:31;11.60;;;6.60;;
6101;SDS011;3081;50.584;7.032;2023-03-08T09:47:12;14.00;;;7.60;;
6101;SDS011;3081;50.584;7.032;2023-03-08T09:49:48;16.17;;;7.23;;
6101;SDS011;3081;50.584;7.032;2023-03-08T09:52:21;13.50;;;7.57;;
6101;SDS011;3081;50.584;7.032;2023-03-08T09:54:53;13.93;;;7.70;;
6101;SDS011;3081;50.584;7.032;2023-03-08T09:57:24;14.60;;;7.70;;
6101;SDS011;3081;50.584;7.032;2023-03-08T09:59:54;15.10;;;8.53;;
6101;SDS011;3081;50.584;7.032;2023-03-08T10:02:25;13.43;;;7.80;;
6101;SDS011;3081;50.584;7.032;2023-03-08T10:05:03;14.60;;;7.67;;
6101;SDS011;3081;50.584;7.032;2023-03-08T10:07:36;11.77;;;6.33;;
6101;SDS011;3081;50.584;7.032;2023-03-08T10:10:27;18.10;;;7.80;;
6101;SDS011;3081;50.584;7.032;2023-03-08T10:13:04;12.80;;;7.77;;
6101;SDS011;3081;50.584;7.032;2023-03-08T10:15:45;13.00;;;8.37;;
6101;SDS011;3081;50.584;7.032;2023-03-08T10:18:17;15.27;;;7.43;;
6101;SDS011;3081;50.584;7.032;2023-03-08T10:20:53;11.00;;;6.77;;
6101;SDS011;3081;50.584;7.032;2023-03-08T10:23:21;11.30;;;6.70;;
6101;SDS011;3081;50.584;7.032;2023-03-08T10:25:50;14.00;;;7.03;;
6101;SDS011;3081;50.584;7.032;2023-03-08T10:28:18;11.67;;;6.87;;
6101;SDS011;3081;50.584;7.032;2023-03-08T10:30:47;13.50;;;8.50;;
6101;SDS011;3081;50.584;7.032;2023-03-08T10:33:15;11.77;;;6.20;;
6101;SDS011;3081;50.584;7.032;2023-03-08T10:35:56;10.87;;;6.07;;
6101;SDS011;3081;50.584;7.032;2023-03-08T10:38:25;10.20;;;6.00;;
6101;SDS011;3081;50.584;7.032;2023-03-08T10:41:03;14.47;;;7.80;;
6101;SDS011;3081;50.584;7.032;2023-03-08T10:43:33;15.77;;;7.10;;
6101;SDS011;3081;50.584;7.032;2023-03-08T10:46:03;13.50;;;7.30;;
6101;SDS011;3081;50.584;7.032;2023-03-08T10:48:31;14.33;;;7.80;;
6101;SDS011;3081;50.584;7.032;2023-03-08T10:51:00;11.53;;;7.10;;
6101;SDS011;3081;50.584;7.032;2023-03-08T10:53:28;10.23;;;6.90;;
6101;SDS011;3081;50.584;7.032;2023-03-08T10:55:57;10.80;;;6.93;;
6101;SDS011;3081;50.584;7.032;2023-03-08T10:58:30;12.27;;;7.53;;
6101;SDS011;3081;50.584;7.032;2023-03-08T11:01:00;12.70;;;7.80;;
6101;SDS011;3081;50.584;7.032;2023-03-08T11:03:28;12.77;;;8.10;;
6101;SDS011;3081;50.584;7.032;2023-03-08T11:05:56;15.53;;;9.33;;
6101;SDS011;3081;50.584;7.032;2023-03-08T11:08:27;22.20;;;13.43;;
6101;SDS011;3081;50.584;7.032;2023-03-08T11:13:40;87.20;;;40.57;;
6101;SDS011;3081;50.584;7.032;2023-03-08T11:16:21;79.17;;;41.67;;
6101;SDS011;3081;50.584;7.032;2023-03-08T11:19:10;13.30;;;7.90;;
6101;SDS011;3081;50.584;7.032;2023-03-08T11:21:57;14.50;;;8.03;;
6101;SDS011;3081;50.584;7.032;2023-03-08T11:24:34;13.77;;;7.43;;
6101;SDS011;3081;50.584;7.032;2023-03-08T11:27:17;14.53;;;7.80;;
6101;SDS011;3081;50.584;7.032;2023-03-08T11:29:57;12.27;;;6.97;;
6101;SDS011;3081;50.584;7.032;2023-03-08T11:32:37;12.13;;;7.33;;
6101;SDS011;3081;50.584;7.032;2023-03-08T11:35:13;12.60;;;7.43;;
6101;SDS011;3081;50.584;7.032;2023-03-08T11:37:49;13.97;;;6.73;;
6101;SDS011;3081;50.584;7.032;2023-03-08T11:40:24;11.17;;;6.00;;
6101;SDS011;3081;50.584;7.032;2023-03-08T11:42:58;11.53;;;6.67;;
6101;SDS011;3081;50.584;7.032;2023-03-08T11:45:42;12.20;;;6.97;;
6101;SDS011;3081;50.584;7.032;2023-03-08T11:48:20;11.63;;;6.70;;
6101;SDS011;3081;50.584;7.032;2023-03-08T11:51:08;11.90;;;6.60;;
6101;SDS011;3081;50.584;7.032;2023-03-08T11:53:45;14.57;;;6.43;;
6101;SDS011;3081;50.584;7.032;2023-03-08T11:59:10;33.33;;;15.60;;
6101;SDS011;3081;50.584;7.032;2023-03-08T12:01:46;16.30;;;8.30;;
6101;SDS011;3081;50.584;7.032;2023-03-08T12:04:17;13.70;;;6.90;;
6101;SDS011;3081;50.584;7.032;2023-03-08T12:06:49;14.17;;;7.37;;
6101;SDS011;3081;50.584;7.032;2023-03-08T12:09:22;12.03;;;6.33;;
6101;SDS011;3081;50.584;7.032;2023-03-08T12:11:56;13.67;;;7.17;;
6101;SDS011;3081;50.584;7.032;2023-03-08T12:14:28;11.90;;;6.27;;
6101;SDS011;3081;50.584;7.032;2023-03-08T12:17:00;15.27;;;7.57;;
6101;SDS011;3081;50.584;7.032;2023-03-08T12:19:34;17.03;;;10.77;;
6101;SDS011;3081;50.584;7.032;2023-03-08T12:22:09;26.83;;;16.90;;
6101;SDS011;3081;50.584;7.032;2023-03-08T12:24:44;19.50;;;12.20;;
6101;SDS011;3081;50.584;7.032;2023-03-08T12:27:17;21.77;;;13.00;;
6101;SDS011;3081;50.584;7.032;2023-03-08T12:30:01;20.80;;;13.50;;
6101;SDS011;3081;50.584;7.032;2023-03-08T12:32:37;16.00;;;9.80;;
6101;SDS011;3081;50.584;7.032;2023-03-08T12:35:19;15.33;;;7.73;;
6101;SDS011;3081;50.584;7.032;2023-03-08T12:37:53;14.93;;;8.30;;
6101;SDS011;3081;50.584;7.032;2023-03-08T12:40:26;13.80;;;7.80;;
6101;SDS011;3081;50.584;7.032;2023-03-08T12:43:04;19.07;;;10.93;;
6101;SDS011;3081;50.584;7.032;2023-03-08T12:45:33;17.03;;;8.63;;
6101;SDS011;3081;50.584;7.032;2023-03-08T12:48:01;14.00;;;7.17;;
6101;SDS011;3081;50.584;7.032;2023-03-08T12:50:40;14.70;;;8.23;;
6101;SDS011;3081;50.584;7.032;2023-03-08T12:53:21;17.83;;;9.90;;
6101;SDS011;3081;50.584;7.032;2023-03-08T12:56:01;15.50;;;7.97;;
6101;SDS011;3081;50.584;7.032;2023-03-08T12:58:32;14.47;;;7.80;;
6101;SDS011;3081;50.584;7.032;2023-03-08T13:01:03;19.13;;;11.13;;
6101;SDS011;3081;50.584;7.032;2023-03-08T13:03:36;32.67;;;19.40;;
6101;SDS011;3081;50.584;7.032;2023-03-08T13:06:15;54.60;;;29.47;;
6101;SDS011;3081;50.584;7.032;2023-03-08T13:08:58;59.77;;;35.20;;
6101;SDS011;3081;50.584;7.032;2023-03-08T13:11:36;33.67;;;20.20;;
6101;SDS011;3081;50.584;7.032;2023-03-08T13:16:49;17.20;;;11.20;;
6101;SDS011;3081;50.584;7.032;2023-03-08T13:19:17;17.33;;;9.87;;
6101;SDS011;3081;50.584;7.032;2023-03-08T13:21:52;21.03;;;11.23;;
6101;SDS011;3081;50.584;7.032;2023-03-08T13:24:32;14.37;;;7.40;;
6101;SDS011;3081;50.584;7.032;2023-03-08T13:27:08;15.83;;;7.63;;
6101;SDS011;3081;50.584;7.032;2023-03-08T13:29:47;16.67;;;8.37;;
6101;SDS011;3081;50.584;7.032;2023-03-08T13:32:16;13.60;;;6.53;;
6101;SDS011;3081;50.584;7.032;2023-03-08T13:34:44;13.17;;;7.10;;
6101;SDS011;3081;50.584;7.032;2023-03-08T13:37:24;18.03;;;8.67;;
6101;SDS011;3081;50.584;7.032;2023-03-08T13:39:53;22.33;;;9.60;;
6101;SDS011;3081;50.584;7.032;2023-03-08T13:42:21;21.93;;;11.40;;
6101;SDS011;3081;50.584;7.032;2023-03-08T13:44:51;19.60;;;11.07;;
6101;SDS011;3081;50.584;7.032;2023-03-08T13:47:21;15.00;;;9.03;;
6101;SDS011;3081;50.584;7.032;2023-03-08T13:49:50;19.27;;;10.63;;
6101;SDS011;3081;50.584;7.032;2023-03-08T13:52:20;23.17;;;8.20;;
6101;SDS011;3081;50.584;7.032;2023-03-08T13:54:50;21.47;;;12.43;;
6101;SDS011;3081;50.584;7.032;2023-03-08T13:57:20;10.33;;;6.00;;
6101;SDS011;3081;50.584;7.032;2023-03-08T13:59:49;9.80;;;5.80;;
6101;SDS011;3081;50.584;7.032;2023-03-08T14:02:20;14.37;;;8.20;;
6101;SDS011;3081;50.584;7.032;2023-03-08T14:04:48;8.57;;;5.70;;
6101;SDS011;3081;50.584;7.032;2023-03-08T14:07:20;17.60;;;10.43;;
6101;SDS011;3081;50.584;7.032;2023-03-08T14:09:48;19.70;;;11.13;;
6101;SDS011;3081;50.584;7.032;2023-03-08T14:12:16;16.17;;;10.77;;
6101;SDS011;3081;50.584;7.032;2023-03-08T14:14:46;9.93;;;6.30;;
6101;SDS011;3081;50.584;7.032;2023-03-08T14:17:19;9.13;;;5.97;;
6101;SDS011;3081;50.584;7.032;2023-03-08T14:19:51;7.10;;;5.10;;
6101;SDS011;3081;50.584;7.032;2023-03-08T14:22:18;10.53;;;5.70;;
6101;SDS011;3081;50.584;7.032;2023-03-08T14:24:48;20.77;;;14.77;;
6101;SDS011;3081;50.584;7.032;2023-03-08T14:30:09;18.70;;;11.00;;
6101;SDS011;3081;50.584;7.032;2023-03-08T14:32:40;17.20;;;11.80;;
6101;SDS011;3081;50.584;7.032;2023-03-08T14:35:21;14.30;;;8.57;;
6101;SDS011;3081;50.584;7.032;2023-03-08T14:37:50;9.70;;;6.20;;
6101;SDS011;3081;50.584;7.032;2023-03-08T14:40:22;11.90;;;7.40;;
6101;SDS011;3081;50.584;7.032;2023-03-08T14:42:53;10.70;;;6.93;;
6101;SDS011;3081;50.584;7.032;2023-03-08T14:45:22;10.23;;;7.27;;
6101;SDS011;3081;50.584;7.032;2023-03-08T14:47:59;11.07;;;6.87;;
6101;SDS011;3081;50.584;7.032;2023-03-08T14:50:28;12.47;;;7.37;;
6101;SDS011;3081;50.584;7.032;2023-03-08T14:52:57;11.93;;;7.40;;
6101;SDS011;3081;50.584;7.032;2023-03-08T14:55:25;35.30;;;17.43;;
6101;SDS011;3081;50.584;7.032;2023-03-08T14:57:54;27.40;;;16.63;;
6101;SDS011;3081;50.584;7.032;2023-03-08T15:00:23;46.60;;;23.83;;
6101;SDS011;3081;50.584;7.032;2023-03-08T15:02:53;12.90;;;8.47;;
6101;SDS011;3081;50.584;7.032;2023-03-08T15:05:22;9.40;;;5.80;;
6101;SDS011;3081;50.584;7.032;2023-03-08T15:07:50;11.20;;;7.00;;
6101;SDS011;3081;50.584;7.032;2023-03-08T15:10:20;30.17;;;16.83;;
6101;SDS011;3081;50.584;7.032;2023-03-08T15:12:51;58.30;;;34.70;;
6101;SDS011;3081;50.584;7.032;2023-03-08T15:15:18;90.70;;;51.00;;
6101;SDS011;3081;50.584;7.032;2023-03-08T15:17:45;30.83;;;18.70;;
6101;SDS011;3081;50.584;7.032;2023-03-08T15:20:12;28.73;;;18.87;;
6101;SDS011;3081;50.584;7.032;2023-03-08T15:22:42;17.67;;;12.40;;
6101;SDS011;3081;50.584;7.032;2023-03-08T15:25:12;18.20;;;13.10;;
6101;SDS011;3081;50.584;7.032;2023-03-08T15:27:41;14.23;;;11.00;;